Pagina principală
METAR-TAF:

METAR-TAF

Aeroporturi :

Metlakatla, Alaska, Statele Unite ale Americii

Latitudine: 55-07-52N, longitudine: 131-34-41W, elevație: 0 m

Observații meteo curente

Raportul a fost făcut în urmă cu 2 ore și 48 de minute, la 01:56 UTC
Vânt 6 kt de la Sud/Sud-est
Temperatură 8°C
Umiditate 87%
Presiune 1010 hPa
Vizibilitate: 16.1 km
ploaie slabă

METAR: PAMM 270156Z AUTO 15006KT 10SM -RA 08/06 A2982 RMK AO2 SLP191 P0001 T00830061 $

Ora: 20:44 (04:44 UTC)


TAF: lipsă

Observații și prognoze meteo pentru peste 4.000 de aeroporturi (rapoarte METAR și TAF).

Stațiile disponibile sunt reprezentate pe hartă prin puncte galbene și roșii.

Țineți indicatorul mouse-ului pe punctul dorit pentru a vedea denumirea stației.

Apoi, faceți clic pentru a vedea observațiile și prognozele meteorologice.

Pentru a schimba harta: Pentru mărire, faceți clic pe butoanele verzi cu cruce neagră; pentru micșorare, pe butonul verde cu o liniuță; pentru hărți învecinate, pe săgețile verzi.


METAR-TAF: